Time;durP1;ratioP1;P1;durP2;ratioP2;P2;SDS_P1;SDS_P2;PMS_P1;PMS_P2;Temp;Humidity;BMP_temperature;BMP_pressure;BME280_temperature;BME280_humidity;BME280_pressure;Samples;Min_cycle;Max_cycle;Signal;HPM_P1;HPM_P2
2022/04/28 00:00:19;;;;;;;17.40;12.63;;;;;;;6.91;73.65;100677.06;5093814;28;20043;-67
2022/04/28 00:02:45;;;;;;;22.80;15.45;;;;;;;6.86;73.95;100675.38;5094534;28;20105;-66
2022/04/28 00:05:11;;;;;;;19.85;14.98;;;;;;;6.82;73.73;100672.88;5092934;28;20043;-65
2022/04/28 00:07:37;;;;;;;22.65;15.93;;;;;;;6.80;73.78;100677.28;5092733;28;20472;-69
2022/04/28 00:10:05;;;;;;;20.20;13.95;;;;;;;6.77;74.22;100677.31;5092466;28;20043;-68
2022/04/28 00:12:30;;;;;;;19.73;14.52;;;;;;;6.77;74.23;100685.16;5085589;28;20031;-67
2022/04/28 00:14:56;;;;;;;19.67;15.15;;;;;;;6.73;74.08;100679.13;5090748;28;20024;-67
2022/04/28 00:17:21;;;;;;;24.45;15.80;;;;;;;6.72;74.08;100682.66;5082234;28;20476;-68
2022/04/28 00:19:47;;;;;;;18.92;13.68;;;;;;;6.66;74.13;100678.38;5092684;28;20042;-68
2022/04/28 00:22:13;;;;;;;22.55;13.15;;;;;;;6.71;74.22;100680.06;5092442;28;20508;-67
2022/04/28 00:24:39;;;;;;;17.05;12.02;;;;;;;6.73;73.99;100676.53;5091749;28;20118;-67
2022/04/28 00:27:05;;;;;;;22.77;13.27;;;;;;;6.72;73.79;100679.16;5092680;28;20444;-67
2022/04/28 00:29:30;;;;;;;19.80;12.90;;;;;;;6.70;73.56;100679.22;5091241;28;20047;-67
2022/04/28 00:31:56;;;;;;;20.52;13.88;;;;;;;6.62;73.54;100679.34;5091395;28;20031;-69
2022/04/28 00:34:21;;;;;;;24.90;14.32;;;;;;;6.53;74.19;100669.03;5091451;28;20032;-67
2022/04/28 00:36:47;;;;;;;22.52;15.13;;;;;;;6.50;74.42;100676.97;5094395;28;20036;-67
2022/04/28 00:39:12;;;;;;;21.50;13.45;;;;;;;6.48;73.97;100681.34;5093383;28;20079;-68
2022/04/28 00:41:37;;;;;;;20.13;14.07;;;;;;;6.47;74.27;100670.91;5090822;28;20093;-67
2022/04/28 00:44:03;;;;;;;21.58;15.43;;;;;;;6.43;74.22;100680.59;5090319;28;20028;-68
2022/04/28 00:46:28;;;;;;;16.92;13.43;;;;;;;6.37;74.73;100678.91;5092565;28;20479;-67
2022/04/28 00:51:41;;;;;;;20.35;13.75;;;;;;;6.22;75.39;100680.03;5095764;28;20043;-68
2022/04/28 00:54:07;;;;;;;19.90;15.15;;;;;;;6.19;75.42;100676.63;5094533;28;20040;-68
2022/04/28 00:56:33;;;;;;;26.88;16.05;;;;;;;6.18;75.41;100677.53;5095892;28;20039;-67
2022/04/28 00:59:02;;;;;;;20.63;13.18;;;;;;;6.20;75.26;100684.47;5099653;28;20028;-66
2022/04/28 01:01:32;;;;;;;23.63;14.43;;;;;;;6.21;74.49;100686.19;5090461;28;20038;-67
2022/04/28 01:03:58;;;;;;;19.02;12.73;;;;;;;6.17;75.19;100681.88;5097215;28;20380;-67
2022/04/28 01:06:23;;;;;;;18.08;13.52;;;;;;;6.13;75.36;100677.59;5091733;28;20395;-68
2022/04/28 01:08:49;;;;;;;19.98;14.48;;;;;;;6.13;75.27;100680.22;5091825;28;20036;-68
2022/04/28 01:11:21;;;;;;;20.67;15.27;;;;;;;6.13;74.89;100682.84;5090826;28;20088;-67
2022/04/28 01:13:47;;;;;;;17.45;14.00;;;;;;;6.03;75.35;100676.03;5090919;28;20039;-65
2022/04/28 01:16:13;;;;;;;19.75;12.80;;;;;;;6.00;75.42;100676.06;5093548;28;20028;-65
2022/04/28 01:18:39;;;;;;;19.50;13.60;;;;;;;6.01;75.69;100677.81;5091749;28;20437;-67
2022/04/28 01:21:06;;;;;;;17.77;11.93;;;;;;;6.00;75.11;100674.28;5092231;28;20028;-67
2022/04/28 01:23:32;;;;;;;16.55;12.70;;;;;;;6.01;74.92;100673.44;5088795;28;21043;-67
2022/04/28 01:25:59;;;;;;;22.08;13.98;;;;;;;5.95;75.51;100672.66;5090358;28;20024;-68
2022/04/28 01:28:27;;;;;;;19.20;13.38;;;;;;;5.94;75.27;100679.66;5090883;28;20122;-67
2022/04/28 01:30:52;;;;;;;20.27;12.98;;;;;;;5.92;75.34;100677.91;5092572;28;20024;-66
2022/04/28 01:33:18;;;;;;;20.20;14.25;;;;;;;5.89;75.61;100680.59;5090825;28;20055;-66
2022/04/28 01:35:43;;;;;;;20.85;13.00;;;;;;;5.89;75.05;100678.81;5090653;28;20028;-67
2022/04/28 01:38:08;;;;;;;17.45;12.48;;;;;;;5.91;74.80;100681.44;5091503;28;20028;-67
2022/04/28 01:40:34;;;;;;;21.17;13.40;;;;;;;5.94;75.00;100689.25;5088818;28;20036;-66
2022/04/28 01:42:59;;;;;;;20.70;14.35;;;;;;;5.92;74.56;100677.91;5089205;28;20032;-67
2022/04/28 01:45:25;;;;;;;23.85;15.38;;;;;;;5.90;74.64;100683.16;5089865;28;20036;-66
2022/04/28 01:47:50;;;;;;;22.70;13.40;;;;;;;5.74;75.87;100679.06;5091945;28;20051;-66
2022/04/28 01:50:15;;;;;;;20.92;13.00;;;;;;;5.75;75.78;100676.41;5090136;28;20491;-66
2022/04/28 01:55:25;;;;;;;16.67;12.88;;;;;;;5.69;75.70;100680.88;5089715;28;20031;-69
2022/04/28 01:57:51;;;;;;;23.45;16.55;;;;;;;5.68;75.82;100682.63;5090151;28;20028;-67
2022/04/28 02:00:19;;;;;;;24.95;15.43;;;;;;;5.63;75.99;100680.97;5090862;28;20051;-67
2022/04/28 02:02:45;;;;;;;19.00;13.43;;;;;;;5.57;76.24;100674.94;5088325;28;20027;-67
2022/04/28 02:05:11;;;;;;;25.55;15.70;;;;;;;5.54;76.44;100677.59;5093340;28;20027;-65
2022/04/28 02:07:37;;;;;;;22.27;14.75;;;;;;;5.52;76.36;100676.75;5093050;28;20028;-65
2022/04/28 02:10:05;;;;;;;22.48;15.50;;;;;;;5.47;76.36;100682.94;5090623;28;20506;-66
2022/04/28 02:12:32;;;;;;;24.48;15.63;;;;;;;5.39;76.83;100685.66;5088328;28;20093;-67
2022/04/28 02:14:57;;;;;;;18.40;14.30;;;;;;;5.38;76.75;100676.06;5088829;28;20040;-66
2022/04/28 02:17:25;;;;;;;24.00;17.02;;;;;;;5.36;76.79;100690.91;5090495;28;20032;-65
2022/04/28 02:19:50;;;;;;;24.20;15.63;;;;;;;5.33;76.59;100683.13;5079118;28;20119;-67
2022/04/28 02:22:16;;;;;;;26.85;16.73;;;;;;;5.28;77.44;100683.16;5105130;28;20464;-66
2022/04/28 02:24:41;;;;;;;23.13;15.23;;;;;;;5.25;76.84;100685.84;5091241;28;20396;-68
2022/04/28 02:27:07;;;;;;;23.67;15.10;;;;;;;5.20;77.31;100692.88;5089847;28;20047;-67
2022/04/28 02:29:33;;;;;;;18.38;15.00;;;;;;;5.21;77.47;100686.75;5089744;28;20039;-65
2022/04/28 02:31:58;;;;;;;24.00;15.65;;;;;;;5.23;76.95;100691.97;5088288;28;20050;-67
2022/04/28 02:34:24;;;;;;;21.63;14.43;;;;;;;5.23;76.87;100687.59;5089318;28;20460;-67
2022/04/28 02:36:49;;;;;;;20.63;13.63;;;;;;;5.18;77.21;100685.94;5087716;28;20078;-66
2022/04/28 02:39:17;;;;;;;23.73;15.38;;;;;;;5.15;77.57;100692.06;5090767;28;20082;-67
2022/04/28 02:41:42;;;;;;;23.25;13.63;;;;;;;5.16;77.65;100688.56;5090358;28;20024;-67
2022/04/28 02:44:08;;;;;;;19.42;14.88;;;;;;;5.15;77.46;100686.84;5089807;28;20036;-68
2022/04/28 02:46:33;;;;;;;20.45;13.57;;;;;;;5.13;77.56;100683.38;5090430;28;20088;-67
2022/04/28 02:48:59;;;;;;;17.92;13.57;;;;;;;5.14;77.57;100688.59;5089697;28;20081;-67
2022/04/28 02:51:25;;;;;;;22.88;15.15;;;;;;;5.12;76.90;100684.28;5089143;28;20441;-67
2022/04/28 02:53:50;;;;;;;22.98;12.95;;;;;;;5.08;77.48;100688.66;5089745;28;20032;-66
2022/04/28 02:56:16;;;;;;;20.35;13.38;;;;;;;5.10;77.63;100686.03;5089762;28;20069;-66
2022/04/28 02:58:41;;;;;;;17.70;14.27;;;;;;;5.09;77.71;100686.91;5088596;28;20070;-67
2022/04/28 03:01:07;;;;;;;18.80;13.48;;;;;;;5.06;77.26;100684.34;5090154;28;20491;-66
2022/04/28 03:03:32;;;;;;;23.23;14.98;;;;;;;5.01;77.70;100692.22;5092455;28;20373;-65
2022/04/28 03:11:27;;;;;;;20.60;13.32;;;;;;;4.95;77.42;100687.09;5090745;28;20092;-66
2022/04/28 03:13:53;;;;;;;18.85;14.20;;;;;;;4.97;77.70;100681.81;5089411;28;20036;-67
2022/04/28 03:16:18;;;;;;;25.55;14.93;;;;;;;4.92;77.43;100684.47;5089602;28;20028;-66
2022/04/28 03:18:44;;;;;;;21.52;15.98;;;;;;;4.88;77.34;100686.28;5089759;28;20039;-67
2022/04/28 03:21:13;;;;;;;20.23;14.80;;;;;;;4.85;78.28;100683.72;5093369;28;20043;-66
2022/04/28 03:23:39;;;;;;;18.15;13.23;;;;;;;4.88;77.67;100686.28;5093348;28;20036;-66
2022/04/28 03:26:04;;;;;;;18.92;13.35;;;;;;;4.82;77.57;100690.69;5096476;28;20038;-66
2022/04/28 03:28:34;;;;;;;21.50;14.30;;;;;;;4.76;78.10;100690.78;5093254;28;20051;-69
2022/04/28 03:31:01;;;;;;;19.75;15.18;;;;;;;4.76;78.28;100691.66;5092856;28;20043;-68
2022/04/28 03:33:27;;;;;;;18.35;14.10;;;;;;;4.77;78.39;100695.13;5093232;28;20110;-67
2022/04/28 03:35:52;;;;;;;22.65;13.32;;;;;;;4.78;77.84;100694.25;5093523;28;20028;-68
2022/04/28 03:38:17;;;;;;;25.25;14.77;;;;;;;4.81;78.05;100691.59;5093197;28;20107;-68
2022/04/28 03:40:43;;;;;;;18.08;11.98;;;;;;;4.82;78.31;100699.41;5092877;28;20090;-68
2022/04/28 03:43:09;;;;;;;19.77;12.75;;;;;;;4.84;77.71;100694.16;5093270;28;20486;-67
2022/04/28 03:45:35;;;;;;;28.25;13.48;;;;;;;4.85;78.02;100698.50;5092808;28;20036;-68
2022/04/28 03:48:01;;;;;;;18.77;13.82;;;;;;;4.83;77.54;100695.91;5093737;28;20111;-66
2022/04/28 03:50:30;;;;;;;21.92;14.25;;;;;;;4.85;77.94;100696.78;5094133;28;20059;-66
2022/04/28 03:52:59;;;;;;;18.83;13.25;;;;;;;4.81;77.66;100705.50;5094513;28;20043;-68
2022/04/28 03:55:25;;;;;;;19.45;14.30;;;;;;;4.75;77.69;100703.00;5100716;28;20021;-68
2022/04/28 03:57:51;;;;;;;26.35;14.13;;;;;;;4.75;77.59;100700.38;5096316;28;20032;-67
2022/04/28 04:00:17;;;;;;;25.35;14.45;;;;;;;4.70;77.77;100705.66;5091660;28;20392;-67
2022/04/28 04:02:43;;;;;;;21.80;11.77;;;;;;;4.67;78.24;100702.19;5092904;28;20115;-66
2022/04/28 04:05:09;;;;;;;21.40;13.98;;;;;;;4.68;78.65;100699.56;5093570;28;20444;-66
2022/04/28 04:07:38;;;;;;;16.73;12.48;;;;;;;4.69;77.85;100701.28;5093242;28;20434;-67
2022/04/28 04:10:07;;;;;;;16.20;12.30;;;;;;;4.73;77.97;100700.38;5093686;28;20681;-65
2022/04/28 04:12:33;;;;;;;17.50;12.77;;;;;;;4.78;78.09;100709.94;5092376;28;20042;-66
2022/04/28 04:14:58;;;;;;;18.80;12.98;;;;;;;4.75;77.57;100700.38;5092591;28;20114;-66
2022/04/28 04:17:24;;;;;;;15.85;11.35;;;;;;;4.75;77.96;100705.59;5092539;28;20107;-67
2022/04/28 04:19:49;;;;;;;22.65;13.35;;;;;;;4.73;77.48;100702.13;5092004;28;20040;-66
2022/04/28 04:22:14;;;;;;;19.17;12.40;;;;;;;4.69;77.56;100708.25;5092004;28;20059;-66
2022/04/28 04:24:42;;;;;;;27.60;16.17;;;;;;;4.66;78.00;100710.91;5093108;28;20391;-66
2022/04/28 04:27:09;;;;;;;24.52;15.80;;;;;;;4.62;78.27;100712.66;5093346;28;20572;-67
2022/04/28 04:29:36;;;;;;;19.67;12.57;;;;;;;4.58;78.71;100717.94;5093838;28;20035;-67
2022/04/28 04:32:24;;;;;;;21.05;12.27;;;;;;;4.61;78.71;100715.31;5096253;28;20032;-67
2022/04/28 04:34:50;;;;;;;21.83;14.15;;;;;;;4.65;78.58;100717.88;5098676;28;20040;-65
2022/04/28 04:37:15;;;;;;;20.02;13.18;;;;;;;4.71;77.96;100715.19;5102779;28;20081;-66
2022/04/28 04:39:41;;;;;;;21.85;12.98;;;;;;;4.71;78.38;100709.97;5099504;28;20056;-67
2022/04/28 04:42:07;;;;;;;22.35;14.10;;;;;;;4.72;78.22;100723.88;5096640;28;20024;-67
2022/04/28 04:44:33;;;;;;;20.77;14.48;;;;;;;4.72;77.66;100716.06;5095856;28;20055;-67
2022/04/28 04:46:58;;;;;;;19.95;12.45;;;;;;;4.73;77.40;100718.66;5095141;28;20032;-66
2022/04/28 04:49:24;;;;;;;19.00;13.88;;;;;;;4.77;77.35;100723.84;5095134;28;20036;-66
2022/04/28 04:51:49;;;;;;;25.75;15.38;;;;;;;4.73;77.68;100723.88;5094368;28;20039;-67
2022/04/28 04:54:14;;;;;;;21.98;13.77;;;;;;;4.73;78.56;100723.03;5094337;28;20040;-66
2022/04/28 04:56:40;;;;;;;32.50;14.90;;;;;;;4.81;77.95;100726.41;5095193;28;20031;-67
2022/04/28 04:59:05;;;;;;;21.02;13.88;;;;;;;4.91;77.85;100737.63;5095902;28;20039;-66
2022/04/28 05:01:31;;;;;;;16.80;12.55;;;;;;;4.96;77.99;100733.22;5094494;28;20396;-65
2022/04/28 05:03:56;;;;;;;22.98;13.20;;;;;;;5.04;77.05;100734.00;5096062;28;20027;-65
2022/04/28 05:06:21;;;;;;;22.40;14.05;;;;;;;5.12;77.34;100740.03;5096074;28;20036;-66
2022/04/28 05:08:47;;;;;;;22.65;13.85;;;;;;;5.19;77.10;100742.53;5095866;28;20047;-65
2022/04/28 05:11:12;;;;;;;17.58;12.68;;;;;;;5.30;76.69;100738.06;5095055;28;20042;-65
2022/04/28 05:13:38;;;;;;;20.25;13.73;;;;;;;5.41;76.16;100745.75;5095276;28;20031;-66
2022/04/28 05:16:03;;;;;;;20.65;12.95;;;;;;;5.48;76.09;100743.06;5093431;28;20059;-66
2022/04/28 05:18:29;;;;;;;20.70;13.75;;;;;;;5.58;75.75;100742.03;5092958;28;20032;-66
2022/04/28 05:20:54;;;;;;;20.83;13.95;;;;;;;5.69;75.58;100744.53;5094279;28;20055;-68
2022/04/28 05:23:20;;;;;;;24.27;14.52;;;;;;;5.79;75.36;100740.91;5092036;28;20127;-67
2022/04/28 05:25:46;;;;;;;19.58;13.85;;;;;;;5.89;75.38;100743.38;5094019;28;20063;-67
2022/04/28 05:28:11;;;;;;;21.63;14.70;;;;;;;5.98;74.51;100741.53;5094216;28;20032;-66
2022/04/28 05:30:37;;;;;;;19.08;14.13;;;;;;;6.10;74.69;100744.84;5093161;28;20503;-65
2022/04/28 05:33:02;;;;;;;23.52;14.60;;;;;;;6.20;73.88;100755.16;5094046;28;20048;-68
2022/04/28 05:35:28;;;;;;;22.08;14.85;;;;;;;6.35;73.88;100748.81;5095960;28;20028;-66
2022/04/28 05:37:54;;;;;;;20.63;13.35;;;;;;;6.45;73.68;100753.00;5095590;28;20032;-65
2022/04/28 05:40:19;;;;;;;23.80;15.02;;;;;;;6.57;73.56;100754.56;5095569;28;20032;-66
2022/04/28 05:45:42;;;;;;;22.52;12.63;;;;;;;6.92;72.67;100758.28;5095128;28;20403;-65
2022/04/28 05:48:20;;;;;;;19.45;12.02;;;;;;;7.18;72.00;100759.53;5093754;28;20040;-66
2022/04/28 05:50:46;;;;;;;18.52;12.20;;;;;;;7.37;71.60;100760.91;5072563;28;20039;-66
2022/04/28 05:53:11;;;;;;;23.50;14.32;;;;;;;7.53;70.90;100762.34;5073083;28;20128;-66
2022/04/28 05:55:38;;;;;;;23.23;12.00;;;;;;;7.67;70.45;100763.78;5073814;28;20576;-66
2022/04/28 05:58:04;;;;;;;20.02;12.23;;;;;;;7.80;69.96;100765.25;5072258;28;20039;-66
2022/04/28 06:00:30;;;;;;;21.05;13.73;;;;;;;7.98;68.89;100766.59;5071985;28;20544;-65
2022/04/28 06:02:56;;;;;;;21.00;13.05;;;;;;;8.15;67.60;100766.22;5071762;28;20392;-66
2022/04/28 06:05:22;;;;;;;24.27;13.85;;;;;;;8.32;67.13;100771.94;5073260;28;20048;-67
2022/04/28 06:07:49;;;;;;;24.05;14.32;;;;;;;8.40;66.41;100763.91;5072359;28;20060;-67
2022/04/28 06:10:14;;;;;;;22.02;13.63;;;;;;;8.50;65.75;100768.00;5071636;28;20033;-66
2022/04/28 06:12:40;;;;;;;24.27;15.05;;;;;;;8.68;65.40;100777.19;5077763;28;20404;-69
2022/04/28 06:15:06;;;;;;;24.20;14.45;;;;;;;8.88;65.16;100770.56;5092873;28;20036;-68
2022/04/28 06:17:32;;;;;;;25.38;14.05;;;;;;;8.98;63.91;100782.56;5090626;28;20031;-66
2022/04/28 06:19:57;;;;;;;26.13;13.68;;;;;;;9.20;63.15;100774.94;5100665;28;20119;-67
2022/04/28 06:22:22;;;;;;;25.65;16.23;;;;;;;9.59;62.40;100786.09;5087642;28;20040;-67
2022/04/28 06:24:55;;;;;;;21.52;12.43;;;;;;;10.03;61.37;100788.34;5088690;28;20024;-67
2022/04/28 06:27:21;;;;;;;21.38;13.07;;;;;;;10.41;59.21;100784.53;5086020;28;20563;-66
2022/04/28 06:29:48;;;;;;;24.48;13.73;;;;;;;10.55;59.65;100781.41;5091281;28;20035;-67
2022/04/28 06:32:16;;;;;;;21.02;12.35;;;;;;;10.92;58.00;100788.94;5097430;28;20089;-70
2022/04/28 06:34:41;;;;;;;20.90;13.63;;;;;;;11.19;56.95;100778.34;5096327;28;20046;-67
2022/04/28 06:37:07;;;;;;;28.65;12.57;;;;;;;11.28;56.56;100782.44;5099740;28;20035;-68
2022/04/28 06:39:32;;;;;;;21.13;13.55;;;;;;;11.53;56.00;100785.03;5098567;27;20032;-68
2022/04/28 06:41:58;;;;;;;20.65;13.73;;;;;;;11.75;54.87;100791.22;5100488;28;20043;-69
2022/04/28 06:44:23;;;;;;;24.33;14.57;;;;;;;11.73;55.10;100786.94;5088977;28;20028;-67
2022/04/28 06:46:48;;;;;;;28.55;13.90;;;;;;;11.62;55.37;100792.63;5084707;28;20047;-54
2022/04/28 06:49:14;;;;;;;23.35;15.93;;;;;;;11.67;55.53;100793.31;5089278;28;20028;-55
2022/04/28 06:51:39;;;;;;;33.50;17.75;;;;;;;11.80;54.40;100789.28;5089150;28;20039;-54
2022/04/28 06:54:04;;;;;;;21.73;14.63;;;;;;;11.82;54.58;100790.09;5089886;28;20062;-54
2022/04/28 06:56:30;;;;;;;26.52;15.20;;;;;;;11.86;54.31;100790.81;5093530;28;20125;-52
2022/04/28 06:58:55;;;;;;;30.65;15.07;;;;;;;12.02;53.96;100796.41;5079807;28;20032;-51
2022/04/28 07:01:21;;;;;;;21.73;14.98;;;;;;;12.38;53.04;100798.50;5071446;28;20025;-55
2022/04/28 07:03:46;;;;;;;27.73;13.38;;;;;;;12.82;52.69;100795.81;5073398;28;20040;-55
2022/04/28 07:06:11;;;;;;;23.95;16.38;;;;;;;13.18;50.64;100798.66;5074140;28;20036;-70
2022/04/28 07:08:37;;;;;;;22.60;15.65;;;;;;;13.25;50.89;100797.47;5079408;28;20051;-68
2022/04/28 07:11:02;;;;;;;24.75;15.40;;;;;;;13.29;50.35;100807.03;5087743;28;23362;-69
2022/04/28 07:13:28;;;;;;;21.60;14.57;;;;;;;13.55;50.18;100810.31;5089494;28;20127;-68
2022/04/28 07:15:53;;;;;;;23.02;15.00;;;;;;;13.84;49.59;100811.63;5089726;28;20058;-69
2022/04/28 07:18:18;;;;;;;25.83;16.05;;;;;;;13.87;49.43;100805.31;5088114;28;20047;-69
2022/04/28 07:20:46;;;;;;;27.00;16.52;;;;;;;13.95;48.81;100808.47;5088443;28;20063;-69
2022/04/28 07:23:12;;;;;;;28.13;16.40;;;;;;;14.08;48.23;100811.41;5088749;28;20450;-71
2022/04/28 07:25:37;;;;;;;35.33;18.40;;;;;;;14.18;48.37;100815.34;5088685;28;20479;-68
2022/04/28 07:28:03;;;;;;;25.80;17.25;;;;;;;14.13;48.69;100818.22;5087195;28;20044;-68
2022/04/28 07:30:28;;;;;;;28.48;18.48;;;;;;;14.26;47.87;100820.28;5089293;28;20090;-69
2022/04/28 07:32:54;;;;;;;28.60;16.95;;;;;;;14.42;47.62;100815.94;5088059;28;20591;-67
2022/04/28 07:35:21;;;;;;;28.40;18.33;;;;;;;14.71;47.26;100817.19;5091062;28;20063;-70
2022/04/28 07:37:47;;;;;;;22.02;17.17;;;;;;;14.76;46.97;100815.16;5089815;28;20104;-69
2022/04/28 07:40:12;;;;;;;21.02;16.15;;;;;;;15.03;46.47;100822.69;5090486;28;20441;-68
2022/04/28 07:42:38;;;;;;;25.88;15.98;;;;;;;15.25;46.31;100815.31;5088258;28;20471;-68
2022/04/28 07:45:04;;;;;;;26.48;15.32;;;;;;;15.55;45.93;100821.75;5089713;28;20040;-70
2022/04/28 07:47:30;;;;;;;19.33;15.10;;;;;;;16.02;44.15;100818.34;5088357;28;20032;-69
2022/04/28 07:49:56;;;;;;;32.53;17.27;;;;;;;16.17;44.26;100819.28;5087509;28;20084;-69
2022/04/28 07:52:21;;;;;;;18.40;14.82;;;;;;;16.26;44.69;100826.75;5087145;28;20609;-70
2022/04/28 07:54:47;;;;;;;25.95;15.65;;;;;;;16.43;43.55;100834.66;5088050;28;20076;-69
2022/04/28 07:57:13;;;;;;;22.00;16.42;;;;;;;16.47;43.84;100838.84;5088222;28;20101;-68
2022/04/28 07:59:39;;;;;;;26.45;16.48;;;;;;;16.74;43.33;100836.41;5088296;28;20551;-69
2022/04/28 08:02:04;;;;;;;30.92;19.25;;;;;;;16.64;43.08;100839.72;5088052;28;20160;-69
2022/04/28 08:04:30;;;;;;;27.77;18.52;;;;;;;16.59;43.22;100842.63;5088957;28;20032;-68
2022/04/28 08:06:56;;;;;;;29.10;17.92;;;;;;;16.49;42.92;100844.06;5089345;28;20024;-69
2022/04/28 08:09:21;;;;;;;24.45;18.27;;;;;;;16.39;43.27;100857.06;5089441;28;20043;-67
2022/04/28 08:11:47;;;;;;;20.02;13.77;;;;;;;16.85;42.67;100849.13;5086692;28;20047;-67
2022/04/28 08:14:13;;;;;;;22.40;15.95;;;;;;;16.87;43.34;100852.56;5090805;28;20551;-66
2022/04/28 08:16:39;;;;;;;23.08;16.75;;;;;;;16.82;43.98;100849.31;5090527;28;20028;-67
2022/04/28 08:19:05;;;;;;;26.15;16.80;;;;;;;16.84;43.90;100858.06;5088581;28;20074;-68
2022/04/28 08:21:30;;;;;;;25.95;17.75;;;;;;;16.97;43.29;100857.34;5088737;28;20077;-69
2022/04/28 08:23:56;;;;;;;30.40;18.58;;;;;;;16.82;43.52;100854.63;5087830;28;20028;-68
2022/04/28 08:26:21;;;;;;;25.95;17.60;;;;;;;16.90;43.54;100857.69;5086678;28;20123;-68
2022/04/28 08:28:47;;;;;;;28.58;19.67;;;;;;;16.94;43.37;100861.91;5088761;28;20035;-68
2022/04/28 08:31:12;;;;;;;27.00;17.40;;;;;;;16.73;43.70;100858.66;5086995;28;20020;-68
2022/04/28 08:33:38;;;;;;;26.63;17.90;;;;;;;16.77;43.94;100859.34;5086953;28;20044;-68
2022/04/28 08:36:03;;;;;;;30.92;17.90;;;;;;;16.88;42.92;100861.41;5087113;28;20081;-68
2022/04/28 08:38:31;;;;;;;24.52;16.80;;;;;;;16.75;43.42;100866.56;5087084;28;20040;-67
2022/04/28 08:41:01;;;;;;;25.88;17.73;;;;;;;16.77;43.03;100866.47;5086016;28;20035;-67
2022/04/28 08:43:29;;;;;;;22.55;16.42;;;;;;;17.00;41.93;100868.69;5084837;28;20058;-67
2022/04/28 08:48:51;;;;;;;23.67;17.52;;;;;;;17.29;41.72;100879.44;5086562;28;20062;-66
2022/04/28 08:51:18;;;;;;;26.05;16.05;;;;;;;17.12;41.64;100873.28;5084579;28;20036;-65
2022/04/28 08:53:47;;;;;;;27.00;18.30;;;;;;;17.36;41.61;100878.13;5086325;28;20557;-66
2022/04/28 08:56:12;;;;;;;27.50;17.65;;;;;;;17.53;41.08;100877.94;5087059;28;20118;-66
2022/04/28 08:58:39;;;;;;;24.40;16.67;;;;;;;17.57;41.05;100881.28;5086331;28;20165;-66
2022/04/28 09:01:04;;;;;;;28.17;17.27;;;;;;;18.02;40.52;100879.44;5085331;28;20408;-65
2022/04/28 09:03:30;;;;;;;22.80;15.93;;;;;;;18.16;39.48;100876.75;5086379;28;20036;-67
2022/04/28 09:05:55;;;;;;;23.80;17.80;;;;;;;17.81;40.73;100884.28;5086328;28;20032;-66
2022/04/28 09:08:20;;;;;;;19.15;15.80;;;;;;;17.74;41.16;100880.25;5086944;28;20108;-67
2022/04/28 09:10:46;;;;;;;22.23;16.30;;;;;;;17.92;40.48;100887.16;5084889;28;20036;-68
2022/04/28 09:15:56;;;;;;;21.20;16.15;;;;;;;18.23;39.57;100883.38;5086425;28;20579;-68
2022/04/28 09:18:23;;;;;;;22.48;16.13;;;;;;;17.97;39.94;100889.53;5085298;28;20119;-68
2022/04/28 09:20:50;;;;;;;24.02;14.88;;;;;;;18.14;39.98;100883.13;5085922;28;20111;-67
2022/04/28 09:23:17;;;;;;;27.80;17.60;;;;;;;18.61;38.77;100877.41;5085708;28;20055;-71
2022/04/28 09:25:44;;;;;;;23.73;17.70;;;;;;;19.01;37.25;100874.78;5086534;28;20454;-69
2022/04/28 09:28:10;;;;;;;25.20;17.05;;;;;;;19.13;36.92;100873.13;5085914;28;20093;-67
2022/04/28 09:30:44;;;;;;;23.90;15.73;;;;;;;19.65;35.68;100869.53;5085659;28;20040;-73
2022/04/28 09:33:14;;;;;;;20.35;15.73;;;;;;;20.02;35.49;100872.31;5077473;28;20539;-70
2022/04/28 09:35:46;;;;;;;23.83;15.60;;;;;;;20.62;34.48;100865.28;5085739;28;20043;-69
2022/04/28 09:38:11;;;;;;;25.73;18.05;;;;;;;20.94;33.59;100862.03;5085893;28;20063;-70
2022/04/28 09:43:21;;;;;;;23.17;15.05;;;;;;;21.29;32.08;100871.91;5085196;28;20047;-70
2022/04/28 09:45:49;;;;;;;20.88;17.67;;;;;;;21.11;32.61;100872.34;5085665;28;20708;-70
2022/04/28 09:48:15;;;;;;;23.30;18.90;;;;;;;21.61;32.42;100870.31;5085251;28;20046;-70
2022/04/28 09:50:41;;;;;;;22.80;16.70;;;;;;;21.22;32.74;100868.84;5084353;28;20699;-69
2022/04/28 09:53:08;;;;;;;18.60;14.13;;;;;;;21.77;31.18;100866.41;5084685;28;20113;-70
2022/04/28 09:55:34;;;;;;;16.55;14.73;;;;;;;21.79;30.53;100867.16;5085278;28;20094;-69
2022/04/28 09:57:59;;;;;;;17.60;13.43;;;;;;;22.18;29.39;100864.94;5086338;28;22169;-69
2022/04/28 10:00:25;;;;;;;18.52;14.85;;;;;;;22.68;29.35;100863.50;5085997;28;20092;-68
2022/04/28 10:02:51;;;;;;;20.42;15.60;;;;;;;22.42;30.39;100865.66;5087063;28;20039;-69
2022/04/28 10:05:18;;;;;;;15.38;13.27;;;;;;;22.69;30.05;100862.53;5066444;28;20508;-71
2022/04/28 10:07:44;;;;;;;26.02;15.50;;;;;;;22.98;29.72;100861.94;5067014;28;20047;-68
2022/04/28 10:10:09;;;;;;;19.02;13.48;;;;;;;23.35;29.48;100858.81;5065359;28;20101;-69
2022/04/28 10:12:35;;;;;;;23.10;16.98;;;;;;;23.26;29.41;100864.97;5064973;28;20036;-68
2022/04/28 10:15:03;;;;;;;23.05;15.90;;;;;;;23.86;28.78;100849.06;5065882;28;20127;-69
2022/04/28 10:17:40;;;;;;;22.75;15.93;;;;;;;23.94;28.51;100860.00;5066467;28;20044;-68
2022/04/28 10:20:14;;;;;;;20.83;17.20;;;;;;;22.94;29.40;100864.03;5066620;28;20106;-68
2022/04/28 10:22:41;;;;;;;29.27;17.00;;;;;;;23.33;29.11;100858.09;5066758;28;20036;-68
2022/04/28 10:33:25;;;;;;;17.33;14.60;;;;;;;23.70;28.25;100861.16;5063962;28;20043;-69
2022/04/28 10:35:50;;;;;;;20.20;15.90;;;;;;;24.09;27.70;100863.19;5064677;28;20119;-69
2022/04/28 10:38:34;;;;;;;17.13;15.40;;;;;;;24.09;27.28;100861.31;5065034;28;20083;-70
2022/04/28 10:41:10;;;;;;;19.83;17.42;;;;;;;24.18;26.41;100852.44;5064449;28;20275;-70
2022/04/28 10:43:39;;;;;;;16.70;14.60;;;;;;;24.28;26.64;100859.69;5064863;28;20044;-69
2022/04/28 10:46:07;;;;;;;24.27;16.83;;;;;;;23.64;27.82;100856.28;5064851;28;20040;-69
2022/04/28 10:48:42;;;;;;;19.65;13.50;;;;;;;23.01;28.58;100859.00;5064653;28;20047;-69
2022/04/28 10:51:17;;;;;;;23.38;16.30;;;;;;;22.60;29.17;100863.28;5062847;28;20502;-67
2022/04/28 10:54:01;;;;;;;25.50;17.65;;;;;;;21.71;31.03;100869.56;5064161;28;20504;-71
2022/04/28 10:56:52;;;;;;;16.85;15.05;;;;;;;21.04;31.93;100870.25;5064490;28;20048;-71
2022/04/28 10:59:32;;;;;;;16.20;14.00;;;;;;;20.76;32.41;100858.91;5064203;28;20040;-70
2022/04/28 11:02:17;;;;;;;23.48;17.02;;;;;;;20.27;33.32;100865.19;5063660;28;20855;-70
2022/04/28 11:04:45;;;;;;;;;;;;;;;20.05;33.49;100860.53;5065577;28;20489;-69
2022/04/28 11:07:20;;;;;;;18.30;15.88;;;;;;;19.34;35.14;100856.56;5066833;28;19967;-69
2022/04/28 11:09:55;;;;;;;20.25;15.38;;;;;;;18.91;35.87;100854.16;5067124;28;20036;-68
2022/04/28 11:12:23;;;;;;;21.15;15.90;;;;;;;18.82;36.63;100852.94;5065704;28;20033;-70
2022/04/28 11:15:05;;;;;;;19.85;15.38;;;;;;;18.70;37.18;100857.22;5065904;28;20681;-69
2022/04/28 11:17:35;;;;;;;21.98;16.92;;;;;;;18.75;36.71;100852.44;5065874;28;20040;-70
2022/04/28 11:20:06;;;;;;;22.85;17.58;;;;;;;18.81;37.15;100849.41;5067014;28;20047;-70
2022/04/28 11:22:32;;;;;;;23.30;18.50;;;;;;;18.70;37.14;100843.88;5066783;28;20051;-69
2022/04/28 11:24:57;;;;;;;20.88;17.13;;;;;;;18.80;37.24;100845.03;5066739;28;20509;-69
2022/04/28 11:27:24;;;;;;;25.70;17.70;;;;;;;18.97;37.25;100838.53;5066279;28;20042;-71
2022/04/28 11:29:51;;;;;;;23.15;16.98;;;;;;;19.05;37.35;100830.88;5066206;28;20504;-69
2022/04/28 11:32:17;;;;;;;26.75;19.90;;;;;;;18.90;37.89;100829.22;5064364;28;20055;-68
2022/04/28 11:34:44;;;;;;;21.98;18.23;;;;;;;18.81;37.91;100837.88;5066582;28;20032;-69
2022/04/28 11:37:17;;;;;;;22.95;17.08;;;;;;;18.88;37.94;100828.50;5065096;28;20268;-68
2022/04/28 11:39:46;;;;;;;24.48;19.58;;;;;;;18.98;38.10;100823.38;5064424;28;20064;-70
2022/04/28 11:42:13;;;;;;;24.73;18.27;;;;;;;19.07;38.02;100831.63;5068024;28;20037;-69